Time,TemperatureF,DewpointF,PressureIn,WindDirection,WindDirectionDegrees,WindSpeedMPH,WindSpeedGustMPH,Humidity,HourlyPrecipIn,Conditions,Clouds,dailyrainin,SolarRadiationWatts/m^2,SoftwareType,DateUTC
2013-01-12 00:00:00,48.0,44.0,-100.00,SSW,202,7.0,-999.0,85,-99.99,,,-99.99,0.000000,,2013-01-12 05:00:00,
2013-01-12 00:42:00,48.0,44.0,-100.00,SSW,202,7.0,-999.0,85,-99.99,,,-99.99,0.000000,,2013-01-12 05:42:00,
2013-01-12 00:53:00,48.0,44.0,-100.00,SSW,202,7.0,-999.0,85,-99.99,,,-99.99,0.000000,,2013-01-12 05:53:00,
2013-01-12 01:00:00,48.0,44.0,-100.00,SSW,202,8.0,-999.0,85,-99.99,,,-99.99,0.000000,,2013-01-12 06:00:00,
2013-01-12 01:33:00,48.0,44.0,-100.00,SSW,202,8.0,-999.0,85,-99.99,,,-99.99,0.000000,,2013-01-12 06:33:00,
2013-01-12 01:43:00,48.0,44.0,-100.00,SSW,202,8.0,-999.0,85,-99.99,,,-99.99,0.000000,,2013-01-12 06:43:00,
2013-01-12 01:53:00,48.0,44.0,-100.00,SSW,202,8.0,-999.0,85,-99.99,,,-99.99,0.000000,,2013-01-12 06:53:00,
2013-01-12 02:00:00,48.0,44.0,-100.00,SW,225,8.0,-999.0,83,-99.99,,,-99.99,0.000000,,2013-01-12 07:00:00,
2013-01-12 02:32:00,48.0,44.0,-100.00,SW,225,8.0,-999.0,83,-99.99,,,-99.99,0.000000,,2013-01-12 07:32:00,
2013-01-12 02:42:00,48.0,44.0,-100.00,SW,225,8.0,-999.0,83,-99.99,,,-99.99,0.000000,,2013-01-12 07:42:00,
2013-01-12 02:53:00,48.0,44.0,-100.00,SW,225,8.0,-999.0,83,-99.99,,,-99.99,0.000000,,2013-01-12 07:53:00,
2013-01-12 03:00:00,48.0,43.0,-100.00,SW,225,9.0,-999.0,82,-99.99,,,-99.99,0.000000,,2013-01-12 08:00:00,
2013-01-12 03:42:00,48.0,43.0,-100.00,SW,225,9.0,-999.0,82,-99.99,,,-99.99,0.000000,,2013-01-12 08:42:00,
2013-01-12 03:53:00,48.0,43.0,-100.00,SW,225,9.0,-999.0,82,-99.99,,,-99.99,0.000000,,2013-01-12 08:53:00,
2013-01-12 04:00:00,48.0,43.0,-100.00,SW,225,10.0,-999.0,82,-99.99,,,-99.99,0.000000,,2013-01-12 09:00:00,
2013-01-12 04:43:00,48.0,43.0,-100.00,SW,225,10.0,-999.0,82,-99.99,,,-99.99,0.000000,,2013-01-12 09:43:00,
2013-01-12 04:53:00,48.0,43.0,-100.00,SW,225,10.0,-999.0,82,-99.99,,,-99.99,0.000000,,2013-01-12 09:53:00,
2013-01-12 05:00:00,48.0,43.0,-100.00,SW,225,10.0,-999.0,82,-99.99,,,-99.99,0.000000,,2013-01-12 10:00:00,
2013-01-12 05:43:00,48.0,43.0,-100.00,SW,225,10.0,-999.0,82,-99.99,,,-99.99,0.000000,,2013-01-12 10:43:00,
2013-01-12 05:52:00,48.0,43.0,-100.00,SW,225,10.0,-999.0,82,-99.99,,,-99.99,0.000000,,2013-01-12 10:52:00,
2013-01-12 06:00:00,48.0,43.0,-100.00,SW,225,10.0,-999.0,82,-99.99,,,-99.99,0.000000,,2013-01-12 11:00:00,
2013-01-12 06:43:00,48.0,43.0,-100.00,SW,225,10.0,-999.0,82,-99.99,,,-99.99,0.000000,,2013-01-12 11:43:00,
2013-01-12 06:53:00,48.0,43.0,-100.00,SW,225,10.0,-999.0,82,-99.99,,,-99.99,0.000000,,2013-01-12 11:53:00,
2013-01-12 07:00:00,47.0,43.0,-100.00,SW,225,9.0,-999.0,83,-99.99,,,-99.99,0.000000,,2013-01-12 12:00:00,
2013-01-12 07:33:00,47.0,43.0,-100.00,SW,225,9.0,-999.0,83,-99.99,,,-99.99,0.000000,,2013-01-12 12:33:00,
2013-01-12 07:43:00,47.0,43.0,-100.00,SW,225,9.0,-999.0,83,-99.99,,,-99.99,0.000000,,2013-01-12 12:43:00,
2013-01-12 07:53:00,47.0,43.0,-100.00,SW,225,9.0,-999.0,83,-99.99,,,-99.99,0.000000,,2013-01-12 12:53:00,
2013-01-12 08:00:00,47.0,43.0,-100.00,SW,225,9.0,-999.0,84,-99.99,,,-99.99,0.000000,,2013-01-12 13:00:00,
2013-01-12 08:33:00,47.0,43.0,-100.00,SW,225,9.0,-999.0,84,-99.99,,,-99.99,0.000000,,2013-01-12 13:33:00,
2013-01-12 08:43:00,47.0,43.0,-100.00,SW,225,9.0,-999.0,84,-99.99,,,-99.99,0.000000,,2013-01-12 13:43:00,
2013-01-12 08:53:00,47.0,43.0,-100.00,SW,225,9.0,-999.0,84,-99.99,,,-99.99,0.000000,,2013-01-12 13:53:00,
2013-01-12 09:00:00,47.0,43.0,-100.00,WSW,247,10.0,-999.0,85,-99.99,,,-99.99,22.040001,,2013-01-12 14:00:00,
2013-01-12 09:43:00,47.0,43.0,-100.00,WSW,247,10.0,-999.0,85,-99.99,,,-99.99,22.040001,,2013-01-12 14:43:00,
2013-01-12 09:53:00,47.0,43.0,-100.00,WSW,247,10.0,-999.0,85,-99.99,,,-99.99,22.040001,,2013-01-12 14:53:00,
2013-01-12 10:00:00,48.0,44.0,-100.00,WSW,247,9.0,-999.0,85,-99.99,,,-99.99,68.440002,,2013-01-12 15:00:00,
2013-01-12 10:34:00,48.0,44.0,-100.00,WSW,247,9.0,-999.0,85,-99.99,,,-99.99,68.440002,,2013-01-12 15:34:00,
2013-01-12 10:43:00,48.0,44.0,-100.00,WSW,247,9.0,-999.0,85,-99.99,,,-99.99,68.440002,,2013-01-12 15:43:00,
2013-01-12 10:53:00,48.0,44.0,-100.00,WSW,247,9.0,-999.0,85,-99.99,,,-99.99,68.440002,,2013-01-12 15:53:00,
2013-01-12 11:00:00,49.0,45.0,-100.00,SW,225,8.0,-999.0,85,-99.99,,,-99.99,112.519997,,2013-01-12 16:00:00,
2013-01-12 11:43:00,49.0,45.0,-100.00,SW,225,8.0,-999.0,85,-99.99,,,-99.99,112.519997,,2013-01-12 16:43:00,
2013-01-12 11:53:00,49.0,45.0,-100.00,SW,225,8.0,-999.0,85,-99.99,,,-99.99,112.519997,,2013-01-12 16:53:00,
2013-01-12 12:00:00,52.0,47.0,-100.00,SW,225,10.0,-999.0,83,-99.99,,,-99.99,230.839996,,2013-01-12 17:00:00,
2013-01-12 12:33:00,52.0,47.0,-100.00,SW,225,10.0,-999.0,83,-99.99,,,-99.99,230.839996,,2013-01-12 17:33:00,
2013-01-12 12:43:00,52.0,47.0,-100.00,SW,225,10.0,-999.0,83,-99.99,,,-99.99,230.839996,,2013-01-12 17:43:00,
2013-01-12 12:53:00,52.0,47.0,-100.00,SW,225,10.0,-999.0,83,-99.99,,,-99.99,230.839996,,2013-01-12 17:53:00,
2013-01-12 13:00:00,54.0,49.0,-100.00,WSW,247,11.0,-999.0,80,-99.99,,,-99.99,236.639999,,2013-01-12 18:00:00,
2013-01-12 13:33:00,54.0,49.0,-100.00,WSW,247,11.0,-999.0,80,-99.99,,,-99.99,236.639999,,2013-01-12 18:33:00,
2013-01-12 13:43:00,54.0,49.0,-100.00,WSW,247,11.0,-999.0,80,-99.99,,,-99.99,236.639999,,2013-01-12 18:43:00,
2013-01-12 13:53:00,54.0,49.0,-100.00,WSW,247,11.0,-999.0,80,-99.99,,,-99.99,236.639999,,2013-01-12 18:53:00,
2013-01-12 14:00:00,56.0,49.0,-100.00,WSW,247,11.0,-999.0,79,-99.99,,,-99.99,241.279999,,2013-01-12 19:00:00,
2013-01-12 14:43:00,56.0,49.0,-100.00,WSW,247,11.0,-999.0,79,-99.99,,,-99.99,241.279999,,2013-01-12 19:43:00,
2013-01-12 14:53:00,56.0,49.0,-100.00,WSW,247,11.0,-999.0,79,-99.99,,,-99.99,241.279999,,2013-01-12 19:53:00,
2013-01-12 15:00:00,57.0,50.0,-100.00,WSW,247,11.0,-999.0,75,-99.99,,,-99.99,261.000000,,2013-01-12 20:00:00,
2013-01-12 15:43:00,57.0,50.0,-100.00,WSW,247,11.0,-999.0,75,-99.99,,,-99.99,261.000000,,2013-01-12 20:43:00,
2013-01-12 15:53:00,57.0,50.0,-100.00,WSW,247,11.0,-999.0,75,-99.99,,,-99.99,261.000000,,2013-01-12 20:53:00,
2013-01-12 16:00:00,58.0,50.0,-100.00,SW,225,10.0,-999.0,75,-99.99,,,-99.99,162.399994,,2013-01-12 21:00:00,
2013-01-12 16:43:00,58.0,50.0,-100.00,SW,225,10.0,-999.0,75,-99.99,,,-99.99,162.399994,,2013-01-12 21:43:00,
2013-01-12 16:53:00,58.0,50.0,-100.00,SW,225,10.0,-999.0,75,-99.99,,,-99.99,162.399994,,2013-01-12 21:53:00,
2013-01-12 17:00:00,56.0,50.0,-100.00,SW,225,7.0,-999.0,80,-99.99,,,-99.99,41.759998,,2013-01-12 22:00:00,
2013-01-12 17:43:00,56.0,50.0,-100.00,SW,225,7.0,-999.0,80,-99.99,,,-99.99,41.759998,,2013-01-12 22:43:00,
2013-01-12 17:53:00,56.0,50.0,-100.00,SW,225,7.0,-999.0,80,-99.99,,,-99.99,41.759998,,2013-01-12 22:53:00,
2013-01-12 18:00:00,54.0,50.0,-100.00,SW,225,5.0,-999.0,83,-99.99,,,-99.99,2.320000,,2013-01-12 23:00:00,
2013-01-12 18:33:00,54.0,50.0,-100.00,SW,225,5.0,-999.0,83,-99.99,,,-99.99,2.320000,,2013-01-12 23:33:00,
2013-01-12 18:43:00,54.0,50.0,-100.00,SW,225,5.0,-999.0,83,-99.99,,,-99.99,2.320000,,2013-01-12 23:43:00,
2013-01-12 18:53:00,54.0,50.0,-100.00,SW,225,5.0,-999.0,83,-99.99,,,-99.99,2.320000,,2013-01-12 23:53:00,
2013-01-12 19:00:00,52.0,48.0,-100.00,SSW,202,3.0,-999.0,86,-99.99,,,-99.99,0.000000,,2013-01-13 00:00:00,
2013-01-12 19:33:00,52.0,48.0,-100.00,SSW,202,3.0,-999.0,86,-99.99,,,-99.99,0.000000,,2013-01-13 00:33:00,
2013-01-12 19:43:00,52.0,48.0,-100.00,SSW,202,3.0,-999.0,86,-99.99,,,-99.99,0.000000,,2013-01-13 00:43:00,
2013-01-12 19:53:00,52.0,48.0,-100.00,SSW,202,3.0,-999.0,86,-99.99,,,-99.99,0.000000,,2013-01-13 00:53:00,
2013-01-12 20:00:00,51.0,48.0,-100.00,SSW,202,2.0,-999.0,88,-99.99,,,-99.99,0.000000,,2013-01-13 01:00:00,
2013-01-12 20:43:00,51.0,48.0,-100.00,SSW,202,2.0,-999.0,88,-99.99,,,-99.99,0.000000,,2013-01-13 01:43:00,
2013-01-12 20:53:00,51.0,48.0,-100.00,SSW,202,2.0,-999.0,88,-99.99,,,-99.99,0.000000,,2013-01-13 01:53:00,
2013-01-12 21:00:00,49.0,47.0,-100.00,SW,225,0.0,-999.0,89,-99.99,,,-99.99,0.000000,,2013-01-13 02:00:00,
2013-01-12 21:43:00,49.0,47.0,-100.00,SW,225,0.0,-999.0,89,-99.99,,,-99.99,0.000000,,2013-01-13 02:43:00,
2013-01-12 21:53:00,49.0,47.0,-100.00,SW,225,0.0,-999.0,89,-99.99,,,-99.99,0.000000,,2013-01-13 02:53:00,
2013-01-12 22:00:00,48.0,45.0,-100.00,East,90,1.0,-999.0,91,-99.99,,,-99.99,0.000000,,2013-01-13 03:00:00,
2013-01-12 22:33:00,48.0,45.0,-100.00,East,90,1.0,-999.0,91,-99.99,,,-99.99,0.000000,,2013-01-13 03:33:00,
2013-01-12 22:43:00,48.0,45.0,-100.00,East,90,1.0,-999.0,91,-99.99,,,-99.99,0.000000,,2013-01-13 03:43:00,
2013-01-12 22:53:00,48.0,45.0,-100.00,East,90,1.0,-999.0,91,-99.99,,,-99.99,0.000000,,2013-01-13 03:53:00,
2013-01-12 23:00:00,48.0,46.0,-100.00,ENE,67,0.0,-999.0,92,-99.99,,,-99.99,0.000000,,2013-01-13 04:00:00,
2013-01-12 23:43:00,48.0,46.0,-100.00,ENE,67,0.0,-999.0,92,-99.99,,,-99.99,0.000000,,2013-01-13 04:43:00,
2013-01-12 23:53:00,48.0,46.0,-100.00,ENE,67,0.0,-999.0,92,-99.99,,,-99.99,0.000000,,2013-01-13 04:53:00,